sensor_id;sensor_type;location;lat;lon;timestamp;P1;durP1;ratioP1;P2;durP2;ratioP2
51602;SDS011;37954;51.980;5.850;2022-10-04T00:06:30;8.23;;;4.82;;
51602;SDS011;37954;51.980;5.850;2022-10-04T00:10:42;7.18;;;4.10;;
51602;SDS011;37954;51.980;5.850;2022-10-04T00:14:55;6.65;;;4.40;;
51602;SDS011;37954;51.980;5.850;2022-10-04T00:36:53;7.13;;;4.32;;
51602;SDS011;37954;51.980;5.850;2022-10-04T00:41:05;7.72;;;4.03;;
51602;SDS011;37954;51.980;5.850;2022-10-04T00:45:24;9.75;;;4.13;;
51602;SDS011;37954;51.980;5.850;2022-10-04T00:49:39;7.30;;;4.45;;
51602;SDS011;37954;51.980;5.850;2022-10-04T00:54:00;6.07;;;4.25;;
51602;SDS011;37954;51.980;5.850;2022-10-04T00:58:27;5.75;;;3.92;;
51602;SDS011;37954;51.980;5.850;2022-10-04T01:02:57;5.97;;;4.13;;
51602;SDS011;37954;51.980;5.850;2022-10-04T01:07:13;6.72;;;3.88;;
51602;SDS011;37954;51.980;5.850;2022-10-04T01:11:29;7.22;;;4.43;;
51602;SDS011;37954;51.980;5.850;2022-10-04T01:15:52;6.13;;;4.50;;
51602;SDS011;37954;51.980;5.850;2022-10-04T01:20:33;8.85;;;4.50;;
51602;SDS011;37954;51.980;5.850;2022-10-04T01:24:47;9.00;;;4.45;;
51602;SDS011;37954;51.980;5.850;2022-10-04T01:33:10;6.32;;;4.38;;
51602;SDS011;37954;51.980;5.850;2022-10-04T01:37:23;6.32;;;4.22;;
51602;SDS011;37954;51.980;5.850;2022-10-04T01:45:52;6.30;;;5.03;;
51602;SDS011;37954;51.980;5.850;2022-10-04T01:50:16;10.73;;;4.45;;
51602;SDS011;37954;51.980;5.850;2022-10-04T01:54:33;10.60;;;4.75;;
51602;SDS011;37954;51.980;5.850;2022-10-04T01:58:50;7.63;;;4.88;;
51602;SDS011;37954;51.980;5.850;2022-10-04T02:03:28;9.93;;;4.97;;
51602;SDS011;37954;51.980;5.850;2022-10-04T02:07:45;7.05;;;4.82;;
51602;SDS011;37954;51.980;5.850;2022-10-04T02:11:59;5.22;;;4.63;;
51602;SDS011;37954;51.980;5.850;2022-10-04T02:16:18;7.22;;;4.70;;
51602;SDS011;37954;51.980;5.850;2022-10-04T02:20:31;7.28;;;5.07;;
51602;SDS011;37954;51.980;5.850;2022-10-04T02:24:45;8.68;;;4.97;;
51602;SDS011;37954;51.980;5.850;2022-10-04T02:28:58;8.70;;;5.35;;
51602;SDS011;37954;51.980;5.850;2022-10-04T02:33:10;8.88;;;6.15;;
51602;SDS011;37954;51.980;5.850;2022-10-04T02:37:22;9.55;;;6.30;;
51602;SDS011;37954;51.980;5.850;2022-10-04T02:41:50;10.10;;;5.80;;
51602;SDS011;37954;51.980;5.850;2022-10-04T02:50:34;6.50;;;5.30;;
51602;SDS011;37954;51.980;5.850;2022-10-04T02:59:13;7.32;;;5.82;;
51602;SDS011;37954;51.980;5.850;2022-10-04T03:03:27;6.30;;;5.65;;
51602;SDS011;37954;51.980;5.850;2022-10-04T03:07:44;10.32;;;5.85;;
51602;SDS011;37954;51.980;5.850;2022-10-04T03:11:56;7.78;;;5.85;;
51602;SDS011;37954;51.980;5.850;2022-10-04T03:16:09;11.80;;;6.07;;
51602;SDS011;37954;51.980;5.850;2022-10-04T03:20:20;6.97;;;5.85;;
51602;SDS011;37954;51.980;5.850;2022-10-04T03:24:34;7.70;;;6.15;;
51602;SDS011;37954;51.980;5.850;2022-10-04T03:28:49;9.90;;;6.78;;
51602;SDS011;37954;51.980;5.850;2022-10-04T03:33:01;11.18;;;6.47;;
51602;SDS011;37954;51.980;5.850;2022-10-04T03:37:14;7.68;;;6.55;;
51602;SDS011;37954;51.980;5.850;2022-10-04T03:41:29;8.70;;;6.25;;
51602;SDS011;37954;51.980;5.850;2022-10-04T03:45:40;8.10;;;5.45;;
51602;SDS011;37954;51.980;5.850;2022-10-04T03:49:52;9.47;;;6.60;;
51602;SDS011;37954;51.980;5.850;2022-10-04T03:54:05;10.07;;;6.50;;
51602;SDS011;37954;51.980;5.850;2022-10-04T03:58:17;7.90;;;6.13;;
51602;SDS011;37954;51.980;5.850;2022-10-04T04:07:04;9.00;;;6.77;;
51602;SDS011;37954;51.980;5.850;2022-10-04T04:11:26;10.63;;;6.57;;
51602;SDS011;37954;51.980;5.850;2022-10-04T04:15:39;11.47;;;6.70;;
51602;SDS011;37954;51.980;5.850;2022-10-04T04:19:53;8.63;;;6.67;;
51602;SDS011;37954;51.980;5.850;2022-10-04T04:24:16;7.00;;;6.30;;
51602;SDS011;37954;51.980;5.850;2022-10-04T04:33:08;7.60;;;6.63;;
51602;SDS011;37954;51.980;5.850;2022-10-04T04:37:33;9.87;;;7.07;;
51602;SDS011;37954;51.980;5.850;2022-10-04T04:41:45;9.37;;;6.53;;
51602;SDS011;37954;51.980;5.850;2022-10-04T04:46:01;10.17;;;6.60;;
51602;SDS011;37954;51.980;5.850;2022-10-04T04:50:36;10.67;;;6.67;;
51602;SDS011;37954;51.980;5.850;2022-10-04T04:54:51;12.93;;;6.40;;
51602;SDS011;37954;51.980;5.850;2022-10-04T04:59:05;10.23;;;7.43;;
51602;SDS011;37954;51.980;5.850;2022-10-04T05:03:18;11.07;;;6.97;;
51602;SDS011;37954;51.980;5.850;2022-10-04T05:07:30;11.10;;;7.67;;
51602;SDS011;37954;51.980;5.850;2022-10-04T05:11:41;9.10;;;7.20;;
51602;SDS011;37954;51.980;5.850;2022-10-04T05:15:53;10.53;;;8.60;;
51602;SDS011;37954;51.980;5.850;2022-10-04T05:20:09;10.17;;;8.13;;
51602;SDS011;37954;51.980;5.850;2022-10-04T05:24:30;11.10;;;8.40;;
51602;SDS011;37954;51.980;5.850;2022-10-04T05:28:44;11.77;;;8.70;;
51602;SDS011;37954;51.980;5.850;2022-10-04T05:33:00;9.83;;;8.63;;
51602;SDS011;37954;51.980;5.850;2022-10-04T05:42:55;11.40;;;9.20;;
51602;SDS011;37954;51.980;5.850;2022-10-04T05:46:49;11.87;;;9.60;;
51602;SDS011;37954;51.980;5.850;2022-10-04T05:51:01;9.97;;;8.97;;
51602;SDS011;37954;51.980;5.850;2022-10-04T06:22:19;12.17;;;8.63;;
51602;SDS011;37954;51.980;5.850;2022-10-04T06:26:41;11.43;;;9.47;;
51602;SDS011;37954;51.980;5.850;2022-10-04T06:31:19;12.97;;;9.23;;
51602;SDS011;37954;51.980;5.850;2022-10-04T06:40:32;12.03;;;9.73;;
51602;SDS011;37954;51.980;5.850;2022-10-04T06:45:09;13.23;;;9.17;;
51602;SDS011;37954;51.980;5.850;2022-10-04T06:49:53;18.47;;;10.53;;
51602;SDS011;37954;51.980;5.850;2022-10-04T07:03:38;12.77;;;9.87;;
51602;SDS011;37954;51.980;5.850;2022-10-04T07:08:08;11.90;;;10.03;;
51602;SDS011;37954;51.980;5.850;2022-10-04T07:12:42;16.07;;;10.53;;
51602;SDS011;37954;51.980;5.850;2022-10-04T07:17:00;14.30;;;10.47;;
51602;SDS011;37954;51.980;5.850;2022-10-04T07:21:15;14.57;;;10.47;;
51602;SDS011;37954;51.980;5.850;2022-10-04T07:25:33;16.70;;;10.60;;
51602;SDS011;37954;51.980;5.850;2022-10-04T07:29:56;12.32;;;10.00;;
51602;SDS011;37954;51.980;5.850;2022-10-04T07:34:10;11.43;;;9.65;;
51602;SDS011;37954;51.980;5.850;2022-10-04T07:38:28;10.10;;;8.13;;
51602;SDS011;37954;51.980;5.850;2022-10-04T07:42:47;9.45;;;7.07;;
51602;SDS011;37954;51.980;5.850;2022-10-04T07:47:17;9.02;;;5.93;;
51602;SDS011;37954;51.980;5.850;2022-10-04T07:51:40;8.77;;;5.43;;
51602;SDS011;37954;51.980;5.850;2022-10-04T07:56:29;7.00;;;4.70;;
51602;SDS011;37954;51.980;5.850;2022-10-04T08:00:58;7.53;;;4.35;;
51602;SDS011;37954;51.980;5.850;2022-10-04T08:05:27;5.55;;;4.05;;
51602;SDS011;37954;51.980;5.850;2022-10-04T08:09:47;5.05;;;4.13;;
51602;SDS011;37954;51.980;5.850;2022-10-04T08:19:14;5.68;;;3.75;;
51602;SDS011;37954;51.980;5.850;2022-10-04T08:38:15;7.53;;;4.10;;
51602;SDS011;37954;51.980;5.850;2022-10-04T08:42:40;5.35;;;3.95;;
51602;SDS011;37954;51.980;5.850;2022-10-04T08:47:11;4.97;;;4.25;;
51602;SDS011;37954;51.980;5.850;2022-10-04T08:52:06;7.35;;;4.35;;
51602;SDS011;37954;51.980;5.850;2022-10-04T08:56:54;6.35;;;4.25;;
51602;SDS011;37954;51.980;5.850;2022-10-04T09:01:30;6.30;;;3.75;;
51602;SDS011;37954;51.980;5.850;2022-10-04T09:10:27;6.20;;;4.13;;
51602;SDS011;37954;51.980;5.850;2022-10-04T09:34:14;4.43;;;4.03;;
51602;SDS011;37954;51.980;5.850;2022-10-04T09:47:30;5.28;;;4.28;;
51602;SDS011;37954;51.980;5.850;2022-10-04T09:56:30;6.22;;;3.90;;
51602;SDS011;37954;51.980;5.850;2022-10-04T10:01:01;5.45;;;3.85;;
51602;SDS011;37954;51.980;5.850;2022-10-04T10:10:00;7.85;;;4.22;;
51602;SDS011;37954;51.980;5.850;2022-10-04T10:24:02;4.22;;;3.20;;
51602;SDS011;37954;51.980;5.850;2022-10-04T10:33:02;4.80;;;3.55;;
51602;SDS011;37954;51.980;5.850;2022-10-04T10:38:07;5.30;;;3.67;;
51602;SDS011;37954;51.980;5.850;2022-10-04T10:47:06;4.90;;;4.25;;
51602;SDS011;37954;51.980;5.850;2022-10-04T11:01:25;7.30;;;4.30;;
51602;SDS011;37954;51.980;5.850;2022-10-04T11:06:20;5.20;;;4.00;;
51602;SDS011;37954;51.980;5.850;2022-10-04T11:20:06;7.07;;;4.25;;
51602;SDS011;37954;51.980;5.850;2022-10-04T11:29:31;5.57;;;3.80;;
51602;SDS011;37954;51.980;5.850;2022-10-04T11:34:10;5.93;;;3.92;;
51602;SDS011;37954;51.980;5.850;2022-10-04T11:57:05;4.47;;;3.03;;
51602;SDS011;37954;51.980;5.850;2022-10-04T12:06:36;4.13;;;3.33;;
51602;SDS011;37954;51.980;5.850;2022-10-04T12:15:42;3.88;;;3.13;;
51602;SDS011;37954;51.980;5.850;2022-10-04T12:24:49;5.10;;;3.10;;
51602;SDS011;37954;51.980;5.850;2022-10-04T12:34:12;3.17;;;2.55;;
51602;SDS011;37954;51.980;5.850;2022-10-04T12:52:42;3.75;;;3.33;;
51602;SDS011;37954;51.980;5.850;2022-10-04T13:06:13;5.95;;;2.97;;
51602;SDS011;37954;51.980;5.850;2022-10-04T13:19:37;4.55;;;2.92;;
51602;SDS011;37954;51.980;5.850;2022-10-04T13:28:22;4.18;;;2.47;;
51602;SDS011;37954;51.980;5.850;2022-10-04T13:32:43;5.03;;;3.08;;
51602;SDS011;37954;51.980;5.850;2022-10-04T13:37:23;4.07;;;2.60;;
51602;SDS011;37954;51.980;5.850;2022-10-04T14:00:09;3.35;;;2.90;;
51602;SDS011;37954;51.980;5.850;2022-10-04T14:09:31;4.53;;;2.88;;
51602;SDS011;37954;51.980;5.850;2022-10-04T14:14:15;2.95;;;2.53;;
51602;SDS011;37954;51.980;5.850;2022-10-04T14:41:17;4.75;;;2.55;;
51602;SDS011;37954;51.980;5.850;2022-10-04T14:46:04;3.63;;;2.63;;
51602;SDS011;37954;51.980;5.850;2022-10-04T14:50:49;6.72;;;3.00;;
51602;SDS011;37954;51.980;5.850;2022-10-04T14:55:32;3.60;;;2.80;;
51602;SDS011;37954;51.980;5.850;2022-10-04T15:13:52;3.35;;;2.70;;
51602;SDS011;37954;51.980;5.850;2022-10-04T15:18:24;4.33;;;2.80;;
51602;SDS011;37954;51.980;5.850;2022-10-04T15:22:44;3.25;;;2.30;;
51602;SDS011;37954;51.980;5.850;2022-10-04T15:45:20;3.78;;;2.53;;
51602;SDS011;37954;51.980;5.850;2022-10-04T15:49:49;7.82;;;2.70;;
51602;SDS011;37954;51.980;5.850;2022-10-04T15:58:36;4.22;;;2.88;;
51602;SDS011;37954;51.980;5.850;2022-10-04T16:03:15;4.05;;;2.53;;
51602;SDS011;37954;51.980;5.850;2022-10-04T16:26:01;4.50;;;2.72;;
51602;SDS011;37954;51.980;5.850;2022-10-04T16:49:30;4.28;;;3.72;;
51602;SDS011;37954;51.980;5.850;2022-10-04T16:58:48;4.38;;;3.33;;
51602;SDS011;37954;51.980;5.850;2022-10-04T17:03:09;4.70;;;3.05;;
51602;SDS011;37954;51.980;5.850;2022-10-04T17:16:46;7.07;;;3.28;;
51602;SDS011;37954;51.980;5.850;2022-10-04T17:30:38;5.10;;;3.50;;
51602;SDS011;37954;51.980;5.850;2022-10-04T17:44:05;5.30;;;4.15;;
51602;SDS011;37954;51.980;5.850;2022-10-04T17:54:21;5.97;;;4.38;;
51602;SDS011;37954;51.980;5.850;2022-10-04T17:59:18;7.65;;;4.60;;
51602;SDS011;37954;51.980;5.850;2022-10-04T18:03:42;5.57;;;4.55;;
51602;SDS011;37954;51.980;5.850;2022-10-04T18:12:35;10.02;;;4.43;;
51602;SDS011;37954;51.980;5.850;2022-10-04T18:16:57;7.35;;;4.38;;
51602;SDS011;37954;51.980;5.850;2022-10-04T18:21:23;5.97;;;4.10;;
51602;SDS011;37954;51.980;5.850;2022-10-04T18:25:37;7.78;;;4.85;;
51602;SDS011;37954;51.980;5.850;2022-10-04T18:38:29;12.85;;;9.35;;
51602;SDS011;37954;51.980;5.850;2022-10-04T18:42:42;6.97;;;5.05;;
51602;SDS011;37954;51.980;5.850;2022-10-04T18:47:14;7.75;;;4.80;;
51602;SDS011;37954;51.980;5.850;2022-10-04T19:00:13;7.03;;;5.22;;
51602;SDS011;37954;51.980;5.850;2022-10-04T19:04:45;6.20;;;4.78;;
51602;SDS011;37954;51.980;5.850;2022-10-04T19:27:41;5.68;;;4.60;;
51602;SDS011;37954;51.980;5.850;2022-10-04T19:32:07;6.93;;;4.70;;
51602;SDS011;37954;51.980;5.850;2022-10-04T19:36:48;4.90;;;4.05;;
51602;SDS011;37954;51.980;5.850;2022-10-04T19:45:39;6.25;;;4.63;;
51602;SDS011;37954;51.980;5.850;2022-10-04T19:50:05;5.55;;;4.70;;
51602;SDS011;37954;51.980;5.850;2022-10-04T19:54:33;7.70;;;4.70;;
51602;SDS011;37954;51.980;5.850;2022-10-04T19:59:03;6.55;;;4.70;;
51602;SDS011;37954;51.980;5.850;2022-10-04T20:03:19;5.70;;;4.50;;
51602;SDS011;37954;51.980;5.850;2022-10-04T20:07:30;5.80;;;4.50;;
51602;SDS011;37954;51.980;5.850;2022-10-04T20:11:45;8.45;;;4.88;;
51602;SDS011;37954;51.980;5.850;2022-10-04T20:15:59;7.90;;;4.47;;
51602;SDS011;37954;51.980;5.850;2022-10-04T20:24:49;9.27;;;5.00;;
51602;SDS011;37954;51.980;5.850;2022-10-04T20:29:00;6.30;;;4.53;;
51602;SDS011;37954;51.980;5.850;2022-10-04T20:33:36;5.97;;;4.65;;
51602;SDS011;37954;51.980;5.850;2022-10-04T20:42:01;5.50;;;4.35;;
51602;SDS011;37954;51.980;5.850;2022-10-04T20:46:32;5.07;;;4.00;;
51602;SDS011;37954;51.980;5.850;2022-10-04T20:50:48;6.75;;;4.70;;
51602;SDS011;37954;51.980;5.850;2022-10-04T20:55:00;5.60;;;4.50;;
51602;SDS011;37954;51.980;5.850;2022-10-04T20:59:13;5.85;;;4.28;;
51602;SDS011;37954;51.980;5.850;2022-10-04T21:03:26;5.97;;;4.13;;
51602;SDS011;37954;51.980;5.850;2022-10-04T21:07:38;8.02;;;4.75;;
51602;SDS011;37954;51.980;5.850;2022-10-04T21:11:50;8.20;;;4.20;;
51602;SDS011;37954;51.980;5.850;2022-10-04T21:16:03;6.25;;;4.60;;
51602;SDS011;37954;51.980;5.850;2022-10-04T21:21:01;4.93;;;3.92;;
51602;SDS011;37954;51.980;5.850;2022-10-04T21:25:25;7.82;;;4.72;;
51602;SDS011;37954;51.980;5.850;2022-10-04T21:29:38;6.07;;;4.30;;
51602;SDS011;37954;51.980;5.850;2022-10-04T21:33:50;4.38;;;3.97;;
51602;SDS011;37954;51.980;5.850;2022-10-04T21:38:01;5.25;;;4.15;;
51602;SDS011;37954;51.980;5.850;2022-10-04T21:42:13;5.75;;;4.28;;
51602;SDS011;37954;51.980;5.850;2022-10-04T21:46:24;6.50;;;4.07;;
51602;SDS011;37954;51.980;5.850;2022-10-04T21:50:36;8.32;;;4.30;;
51602;SDS011;37954;51.980;5.850;2022-10-04T21:54:47;8.07;;;4.68;;
51602;SDS011;37954;51.980;5.850;2022-10-04T21:58:59;5.13;;;4.05;;
51602;SDS011;37954;51.980;5.850;2022-10-04T22:03:11;6.03;;;4.32;;
51602;SDS011;37954;51.980;5.850;2022-10-04T22:07:22;5.10;;;4.45;;
51602;SDS011;37954;51.980;5.850;2022-10-04T22:11:34;6.10;;;4.68;;
51602;SDS011;37954;51.980;5.850;2022-10-04T22:15:46;7.07;;;4.43;;
51602;SDS011;37954;51.980;5.850;2022-10-04T22:19:58;6.65;;;4.88;;
51602;SDS011;37954;51.980;5.850;2022-10-04T22:24:12;7.32;;;4.60;;
51602;SDS011;37954;51.980;5.850;2022-10-04T22:28:28;5.20;;;4.50;;
51602;SDS011;37954;51.980;5.850;2022-10-04T22:32:40;5.95;;;4.68;;
51602;SDS011;37954;51.980;5.850;2022-10-04T22:36:52;5.90;;;4.55;;
51602;SDS011;37954;51.980;5.850;2022-10-04T22:41:13;7.10;;;4.78;;
51602;SDS011;37954;51.980;5.850;2022-10-04T22:45:27;5.63;;;4.47;;
51602;SDS011;37954;51.980;5.850;2022-10-04T22:49:42;6.45;;;4.40;;
51602;SDS011;37954;51.980;5.850;2022-10-04T22:53:55;9.20;;;4.95;;
51602;SDS011;37954;51.980;5.850;2022-10-04T22:58:16;6.30;;;4.72;;
51602;SDS011;37954;51.980;5.850;2022-10-04T23:02:29;6.75;;;4.60;;
51602;SDS011;37954;51.980;5.850;2022-10-04T23:06:40;5.80;;;4.45;;
51602;SDS011;37954;51.980;5.850;2022-10-04T23:11:01;6.47;;;4.40;;
51602;SDS011;37954;51.980;5.850;2022-10-04T23:15:13;6.78;;;4.35;;
51602;SDS011;37954;51.980;5.850;2022-10-04T23:19:26;5.63;;;4.22;;
51602;SDS011;37954;51.980;5.850;2022-10-04T23:23:37;7.57;;;4.70;;
51602;SDS011;37954;51.980;5.850;2022-10-04T23:27:49;5.03;;;4.28;;
51602;SDS011;37954;51.980;5.850;2022-10-04T23:32:07;5.22;;;4.00;;
51602;SDS011;37954;51.980;5.850;2022-10-04T23:36:21;8.48;;;4.40;;
51602;SDS011;37954;51.980;5.850;2022-10-04T23:40:33;5.50;;;4.18;;
51602;SDS011;37954;51.980;5.850;2022-10-04T23:44:48;7.75;;;4.75;;
51602;SDS011;37954;51.980;5.850;2022-10-04T23:49:00;5.80;;;4.45;;
51602;SDS011;37954;51.980;5.850;2022-10-04T23:53:18;5.38;;;4.32;;
51602;SDS011;37954;51.980;5.850;2022-10-04T23:57:36;7.07;;;4.78;;
